createdAt,value
2022-11-05T00:08:51.592Z,99.90
2022-11-05T00:11:59.068Z,99.90
2022-11-05T00:14:47.826Z,99.90
2022-11-05T00:21:06.609Z,99.90
2022-11-05T00:23:55.242Z,99.90
2022-11-05T00:26:49.524Z,99.90
2022-11-05T00:29:20.793Z,99.90
2022-11-05T00:32:37.717Z,99.90
2022-11-05T00:35:22.411Z,99.90
2022-11-05T00:37:54.647Z,99.90
2022-11-05T00:47:32.053Z,99.90
2022-11-05T00:56:43.175Z,99.90
2022-11-05T00:59:17.239Z,99.90
2022-11-05T01:01:48.228Z,99.90
2022-11-05T01:04:21.809Z,99.90
2022-11-05T01:06:49.958Z,99.90
2022-11-05T01:13:45.464Z,99.90
2022-11-05T01:16:19.533Z,99.90
2022-11-05T01:19:10.175Z,99.90
2022-11-05T01:21:44.294Z,99.90
2022-11-05T01:27:54.165Z,99.90
2022-11-05T01:30:57.217Z,99.90
2022-11-05T01:37:10.663Z,99.90
2022-11-05T01:40:07.518Z,99.90
2022-11-05T01:43:01.924Z,99.90
2022-11-05T01:57:14.646Z,99.90
2022-11-05T01:59:50.960Z,99.90
2022-11-05T02:02:21.978Z,99.90
2022-11-05T02:04:59.082Z,99.90
2022-11-05T02:07:31.170Z,99.90
2022-11-05T02:10:07.118Z,99.90
2022-11-05T02:13:36.155Z,99.90
2022-11-05T02:16:28.726Z,99.90
2022-11-05T02:27:33.545Z,99.90
2022-11-05T02:30:54.344Z,99.90
2022-11-05T02:37:41.369Z,99.90
2022-11-05T02:40:52.951Z,99.90
2022-11-05T02:44:13.188Z,99.90
2022-11-05T02:46:21.036Z,99.90
2022-11-05T02:47:37.596Z,99.90
2022-11-05T02:50:24.399Z,99.90
2022-11-05T02:53:31.185Z,99.90
2022-11-05T02:56:24.431Z,99.90
2022-11-05T02:59:06.050Z,99.90
2022-11-05T03:01:48.459Z,99.90
2022-11-05T03:08:11.384Z,99.90
2022-11-05T03:11:06.807Z,99.90
2022-11-05T03:14:08.190Z,99.90
2022-11-05T03:17:28.308Z,99.90
2022-11-05T03:20:37.338Z,99.90
2022-11-05T03:28:02.860Z,99.90
2022-11-05T03:30:40.052Z,99.90
2022-11-05T03:33:32.178Z,99.90
2022-11-05T03:36:30.450Z,99.90
2022-11-05T03:46:39.447Z,99.90
2022-11-05T03:53:14.183Z,99.90
2022-11-05T03:56:10.480Z,99.90
2022-11-05T03:59:05.461Z,99.90
2022-11-05T04:02:23.624Z,99.90
2022-11-05T04:04:54.418Z,99.90
2022-11-05T04:07:49.632Z,99.90
2022-11-05T04:11:01.383Z,99.90
2022-11-05T04:13:38.501Z,99.90
2022-11-05T04:16:32.469Z,99.90
2022-11-05T04:19:38.149Z,99.90
2022-11-05T04:22:23.987Z,99.90
2022-11-05T04:24:52.224Z,99.90
2022-11-05T04:27:33.647Z,99.90
2022-11-05T04:30:20.105Z,99.90
2022-11-05T04:33:12.101Z,99.90
2022-11-05T04:36:13.806Z,99.90
2022-11-05T04:38:41.973Z,99.90
2022-11-05T04:41:19.445Z,99.90
2022-11-05T04:43:59.339Z,99.90
2022-11-05T04:46:33.713Z,99.90
2022-11-05T04:49:04.160Z,99.90
2022-11-05T04:51:56.973Z,99.90
2022-11-05T05:01:28.792Z,99.90
2022-11-05T05:04:12.801Z,99.90
2022-11-05T05:06:52.691Z,99.90
2022-11-05T05:09:44.509Z,99.90
2022-11-05T05:12:26.835Z,99.90
2022-11-05T05:15:21.009Z,99.90
2022-11-05T05:18:45.060Z,99.90
2022-11-05T05:21:49.373Z,99.90
2022-11-05T05:24:35.242Z,99.90
2022-11-05T05:27:17.510Z,99.90
2022-11-05T05:29:58.778Z,99.90
2022-11-05T05:33:43.526Z,99.90
2022-11-05T05:36:42.493Z,99.90
2022-11-05T05:39:11.327Z,99.90
2022-11-05T05:48:15.031Z,99.90
2022-11-05T05:54:35.012Z,99.90
2022-11-05T05:57:32.587Z,99.90
2022-11-05T06:01:00.275Z,99.90
2022-11-05T06:03:31.773Z,99.90
2022-11-05T06:09:42.065Z,99.90
2022-11-05T06:12:25.106Z,98.90
2022-11-05T06:15:00.494Z,97.90
2022-11-05T06:17:36.967Z,97.10
2022-11-05T06:23:06.704Z,97.90
2022-11-05T06:25:54.301Z,96.60
2022-11-05T06:28:30.277Z,96.40
2022-11-05T06:31:43.082Z,97.30
2022-11-05T06:34:32.552Z,97.60
2022-11-05T06:40:40.058Z,99.60
2022-11-05T06:46:48.144Z,98.20
2022-11-05T06:49:35.508Z,97.50
2022-11-05T06:58:03.626Z,97.40
2022-11-05T07:00:54.833Z,97.20
2022-11-05T07:04:01.819Z,98.30
2022-11-05T07:13:17.665Z,99.00
2022-11-05T07:20:11.700Z,98.90
2022-11-05T07:22:52.670Z,98.40
2022-11-05T07:25:43.628Z,98.70
2022-11-05T07:28:51.290Z,98.50
2022-11-05T07:31:38.758Z,98.80
2022-11-05T07:34:56.238Z,97.30
2022-11-05T07:37:57.194Z,97.60
2022-11-05T07:40:29.603Z,97.00
2022-11-05T07:49:45.498Z,95.00
2022-11-05T07:52:19.298Z,93.40
2022-11-05T07:55:05.825Z,92.50
2022-11-05T07:57:58.656Z,92.60
2022-11-05T08:01:02.100Z,91.70
2022-11-05T08:10:34.800Z,87.60
2022-11-05T08:16:09.582Z,85.40
2022-11-05T08:21:46.273Z,84.80
2022-11-05T08:28:11.306Z,84.90
2022-11-05T08:30:48.397Z,85.00
2022-11-05T08:36:35.633Z,84.40
2022-11-05T08:39:06.608Z,82.30
2022-11-05T08:41:34.768Z,83.70
2022-11-05T08:47:25.303Z,83.50
2022-11-05T08:53:59.747Z,78.80
2022-11-05T08:56:30.820Z,80.20
2022-11-05T08:59:21.659Z,80.60
2022-11-05T09:01:59.746Z,81.80
2022-11-05T09:04:52.645Z,79.10
2022-11-05T09:10:31.899Z,82.00
2022-11-05T09:13:18.187Z,82.50
2022-11-05T09:15:56.572Z,81.90
2022-11-05T09:18:52.559Z,83.60
2022-11-05T09:25:29.777Z,80.80
2022-11-05T09:28:16.114Z,81.30
2022-11-05T09:31:23.976Z,81.70
2022-11-05T09:34:07.281Z,82.00
2022-11-05T09:36:35.344Z,83.30
2022-11-05T09:39:06.475Z,83.60
2022-11-05T09:41:41.385Z,83.60
2022-11-05T09:44:22.355Z,82.80
2022-11-05T09:47:33.211Z,82.70
2022-11-05T09:50:16.214Z,82.50
2022-11-05T09:53:47.472Z,82.00
2022-11-05T09:56:55.458Z,81.50
2022-11-05T09:59:46.374Z,80.50
2022-11-05T10:02:57.408Z,80.00
2022-11-05T10:07:09.969Z,80.40
2022-11-05T10:13:34.838Z,77.00
2022-11-05T10:16:49.185Z,75.50
2022-11-05T10:20:09.930Z,75.60
2022-11-05T10:23:06.907Z,71.70
2022-11-05T10:25:52.110Z,72.70
2022-11-05T10:28:37.350Z,71.50
2022-11-05T10:31:44.872Z,70.90
2022-11-05T10:37:43.282Z,69.80
2022-11-05T10:41:17.107Z,71.70
2022-11-05T10:44:04.594Z,70.60
2022-11-05T10:46:51.338Z,70.70
2022-11-05T10:49:52.896Z,71.40
2022-11-05T10:53:06.732Z,72.30
2022-11-05T10:56:01.116Z,70.80
2022-11-05T10:59:32.463Z,71.50
2022-11-05T11:06:18.363Z,71.80
2022-11-05T11:09:00.267Z,73.50
2022-11-05T11:11:36.884Z,75.10
2022-11-05T11:14:26.775Z,75.80
2022-11-05T11:21:12.378Z,75.10
2022-11-05T11:23:48.040Z,74.70
2022-11-05T11:26:47.953Z,73.80
2022-11-05T11:29:24.890Z,74.60
2022-11-05T11:32:26.178Z,73.70
2022-11-05T11:35:22.160Z,74.20
2022-11-05T11:37:54.338Z,72.50
2022-11-05T11:47:52.781Z,70.00
2022-11-05T11:50:48.509Z,70.10
2022-11-05T11:54:00.031Z,68.30
2022-11-05T11:56:36.508Z,69.00
2022-11-05T11:59:40.456Z,66.50
2022-11-05T12:03:30.783Z,69.40
2022-11-05T12:06:09.909Z,69.90
2022-11-05T12:09:06.558Z,70.40
2022-11-05T12:11:44.139Z,71.70
2022-11-05T12:15:03.628Z,71.10
2022-11-05T12:18:15.605Z,73.20
2022-11-05T12:21:29.475Z,75.30
2022-11-05T12:25:20.865Z,77.20
2022-11-05T12:29:17.362Z,81.00
2022-11-05T12:32:55.154Z,82.50
2022-11-05T12:36:01.348Z,82.60
2022-11-05T12:39:04.633Z,82.80
2022-11-05T12:42:10.271Z,82.40
2022-11-05T12:45:05.892Z,82.50
2022-11-05T12:48:14.312Z,79.30
2022-11-05T12:58:05.085Z,78.80
2022-11-05T13:00:33.530Z,76.60
2022-11-05T13:03:18.131Z,75.70
2022-11-05T13:05:49.525Z,76.60
2022-11-05T13:08:22.393Z,76.80
2022-11-05T13:10:55.013Z,77.00
2022-11-05T13:13:29.919Z,76.50
2022-11-05T13:16:04.656Z,75.80
2022-11-05T13:18:40.960Z,76.10
2022-11-05T13:21:11.866Z,76.50
2022-11-05T13:23:45.199Z,76.20
2022-11-05T13:26:19.883Z,75.30
2022-11-05T13:28:57.536Z,74.30
2022-11-05T13:31:32.605Z,74.70
2022-11-05T13:34:04.042Z,75.60
2022-11-05T13:36:54.715Z,72.50
2022-11-05T13:39:26.997Z,73.00
2022-11-05T13:42:10.411Z,73.40
2022-11-05T13:45:00.525Z,73.80
2022-11-05T13:47:50.604Z,73.00
2022-11-05T13:50:52.158Z,74.10
2022-11-05T13:53:54.171Z,73.70
2022-11-05T13:56:34.741Z,73.40
2022-11-05T13:59:23.876Z,73.10
2022-11-05T14:01:57.099Z,72.90
2022-11-05T14:04:32.203Z,73.60
2022-11-05T14:07:09.960Z,73.50
2022-11-05T14:09:38.558Z,72.60
2022-11-05T14:12:15.911Z,72.50
2022-11-05T14:14:46.741Z,73.20
2022-11-05T14:17:26.607Z,73.80
2022-11-05T14:20:22.687Z,73.30
2022-11-05T14:22:50.894Z,73.20
2022-11-05T14:26:01.704Z,73.70
2022-11-05T14:28:41.770Z,73.60
2022-11-05T14:31:47.335Z,74.40
2022-11-05T14:34:24.888Z,74.20
2022-11-05T14:37:29.341Z,74.00
2022-11-05T14:40:00.808Z,73.60
2022-11-05T14:42:31.608Z,73.90
2022-11-05T14:45:21.173Z,73.80
2022-11-05T14:47:55.541Z,73.80
2022-11-05T14:50:32.267Z,73.60
2022-11-05T14:53:10.424Z,74.10
2022-11-05T14:55:44.039Z,74.70
2022-11-05T14:58:34.258Z,74.90
2022-11-05T15:01:04.248Z,73.90
2022-11-05T15:04:00.910Z,75.90
2022-11-05T15:06:33.123Z,76.40
2022-11-05T15:09:14.499Z,76.40
2022-11-05T15:11:49.952Z,77.00
2022-11-05T15:14:29.883Z,78.40
2022-11-05T15:17:02.796Z,77.90
2022-11-05T15:19:34.846Z,78.30
2022-11-05T15:22:08.138Z,78.10
2022-11-05T15:24:37.446Z,78.60
2022-11-05T15:27:16.195Z,78.40
2022-11-05T15:29:47.318Z,78.40
2022-11-05T15:32:18.570Z,79.10
2022-11-05T15:34:53.382Z,79.20
2022-11-05T15:37:25.365Z,80.00
2022-11-05T15:39:54.862Z,80.30
2022-11-05T15:42:24.678Z,80.90
2022-11-05T15:44:54.073Z,81.20
2022-11-05T15:47:24.601Z,80.90
2022-11-05T15:49:56.025Z,81.00
2022-11-05T15:52:32.077Z,80.80
2022-11-05T15:55:18.490Z,80.20
2022-11-05T15:57:51.064Z,79.80
2022-11-05T16:00:23.142Z,80.00
2022-11-05T16:02:57.374Z,79.90
2022-11-05T16:05:27.918Z,80.30
2022-11-05T16:07:59.414Z,80.50
2022-11-05T16:10:31.633Z,80.40
2022-11-05T16:13:23.120Z,80.80
2022-11-05T16:15:55.621Z,80.30
2022-11-05T16:18:25.617Z,81.00
2022-11-05T16:21:04.982Z,81.50
2022-11-05T16:23:45.856Z,81.90
2022-11-05T16:29:27.397Z,81.90
2022-11-05T16:31:57.830Z,82.60
2022-11-05T16:34:29.185Z,81.70
2022-11-05T16:36:58.786Z,81.90
2022-11-05T16:39:28.534Z,81.70
2022-11-05T16:41:56.530Z,81.70
2022-11-05T16:44:27.035Z,82.10
2022-11-05T16:46:55.143Z,82.00
2022-11-05T16:49:23.790Z,82.00
2022-11-05T16:51:51.904Z,81.90
2022-11-05T16:54:20.038Z,82.00
2022-11-05T16:56:49.433Z,82.20
2022-11-05T16:59:17.470Z,82.10
2022-11-05T17:01:45.952Z,82.20
2022-11-05T17:04:14.934Z,82.30
2022-11-05T17:06:43.799Z,82.30
2022-11-05T17:09:14.405Z,82.50
2022-11-05T17:11:42.409Z,82.60
2022-11-05T17:14:14.176Z,82.80
2022-11-05T17:16:42.439Z,82.60
2022-11-05T17:19:15.226Z,82.80
2022-11-05T17:21:43.794Z,82.70
2022-11-05T17:24:14.026Z,82.80
2022-11-05T17:26:42.486Z,83.00
2022-11-05T17:29:11.886Z,83.20
2022-11-05T17:31:40.799Z,83.10
2022-11-05T17:34:11.672Z,83.20
2022-11-05T17:36:40.163Z,83.20
2022-11-05T17:39:08.304Z,83.00
2022-11-05T17:41:36.596Z,83.20
2022-11-05T17:44:04.864Z,83.40
2022-11-05T17:46:34.685Z,83.40
2022-11-05T17:49:04.815Z,83.50
2022-11-05T17:51:34.284Z,83.90
2022-11-05T17:54:02.566Z,84.40
2022-11-05T17:56:35.507Z,83.30
2022-11-05T17:59:04.939Z,82.90
2022-11-05T18:01:35.984Z,83.30
2022-11-05T18:04:09.051Z,83.30
2022-11-05T18:06:37.983Z,83.40
2022-11-05T18:09:06.466Z,83.70
2022-11-05T18:11:34.935Z,83.70
2022-11-05T18:14:03.740Z,83.80
2022-11-05T18:16:32.087Z,84.00
2022-11-05T18:19:01.914Z,84.20
2022-11-05T18:21:30.034Z,84.10
2022-11-05T18:23:58.067Z,83.90
2022-11-05T18:26:26.419Z,84.20
2022-11-05T18:28:54.448Z,84.20
2022-11-05T18:31:24.946Z,83.80
2022-11-05T18:33:58.265Z,83.60
2022-11-05T18:36:31.541Z,83.70
2022-11-05T18:39:02.274Z,83.70
2022-11-05T18:41:31.251Z,83.70
2022-11-05T18:44:00.676Z,83.80
2022-11-05T18:47:01.081Z,83.70
2022-11-05T18:49:20.115Z,83.60
2022-11-05T18:51:49.566Z,83.70
2022-11-05T18:54:17.626Z,83.60
2022-11-05T18:56:46.243Z,83.60
2022-11-05T18:59:35.909Z,83.30
2022-11-05T19:02:06.311Z,83.40
2022-11-05T19:04:36.242Z,83.30
2022-11-05T19:07:06.402Z,83.30
2022-11-05T19:09:34.523Z,83.30
2022-11-05T19:12:03.070Z,83.40
2022-11-05T19:14:31.215Z,83.80
2022-11-05T19:16:59.822Z,84.00
2022-11-05T19:19:28.239Z,84.30
2022-11-05T19:21:56.285Z,84.90
2022-11-05T19:24:25.829Z,85.80
2022-11-05T19:26:53.913Z,86.40
2022-11-05T19:29:22.055Z,87.10
2022-11-05T19:31:50.384Z,87.40
2022-11-05T19:34:19.061Z,87.80
2022-11-05T19:36:47.223Z,88.60
2022-11-05T19:39:16.015Z,88.90
2022-11-05T19:41:45.563Z,89.00
2022-11-05T19:44:15.989Z,89.20
2022-11-05T19:46:44.909Z,89.60
2022-11-05T19:49:13.157Z,90.40
2022-11-05T19:51:41.264Z,90.60
2022-11-05T19:54:10.716Z,90.70
2022-11-05T19:56:39.362Z,90.60
2022-11-05T19:59:08.885Z,91.80
2022-11-05T20:01:37.232Z,93.70
2022-11-05T20:04:06.015Z,93.60
2022-11-05T20:06:37.997Z,93.80
2022-11-05T20:09:27.212Z,95.80
2022-11-05T20:11:56.781Z,95.40
2022-11-05T20:14:27.101Z,95.80
2022-11-05T20:16:55.602Z,95.60
2022-11-05T20:19:24.387Z,96.80
2022-11-05T20:21:54.667Z,96.20
2022-11-05T20:24:25.495Z,96.20
2022-11-05T20:26:54.112Z,96.50
2022-11-05T20:29:32.119Z,96.50
2022-11-05T20:32:03.445Z,96.10
2022-11-05T20:34:32.903Z,95.40
2022-11-05T20:37:01.192Z,94.20
2022-11-05T20:39:29.214Z,92.90
2022-11-05T20:42:00.361Z,92.00
2022-11-05T20:44:29.865Z,91.30
2022-11-05T20:46:57.870Z,90.60
2022-11-05T20:49:26.194Z,90.30
2022-11-05T20:51:54.605Z,89.80
2022-11-05T20:54:25.148Z,88.90
2022-11-05T20:56:53.280Z,89.00
2022-11-05T20:59:21.407Z,89.00
2022-11-05T21:01:51.887Z,88.60
2022-11-05T21:04:20.413Z,88.70
2022-11-05T21:06:48.501Z,88.70
2022-11-05T21:09:16.596Z,88.70
2022-11-05T21:12:02.348Z,88.40
2022-11-05T21:14:30.496Z,88.50
2022-11-05T21:17:00.095Z,88.60
2022-11-05T21:19:29.419Z,88.40
2022-11-05T21:21:59.842Z,88.20
2022-11-05T21:24:28.254Z,88.20
2022-11-05T21:26:56.398Z,88.70
2022-11-05T21:29:24.821Z,88.50
2022-11-05T21:31:52.909Z,88.20
2022-11-05T21:34:22.536Z,87.80
2022-11-05T21:36:51.532Z,87.70
2022-11-05T21:39:20.324Z,87.70
2022-11-05T21:41:48.429Z,87.90
2022-11-05T21:44:16.862Z,87.80
2022-11-05T21:46:47.521Z,87.70
2022-11-05T21:49:15.803Z,87.80
2022-11-05T21:52:02.952Z,87.80
2022-11-05T21:54:48.566Z,88.20
2022-11-05T21:57:35.672Z,88.40
2022-11-05T22:00:05.829Z,89.00
2022-11-05T22:02:34.190Z,88.60
2022-11-05T22:05:03.611Z,89.80
2022-11-05T22:07:35.414Z,90.20
2022-11-05T22:10:04.714Z,90.60
2022-11-05T22:12:33.161Z,90.90
2022-11-05T22:15:01.264Z,92.00
2022-11-05T22:17:29.406Z,92.20
2022-11-05T22:19:57.612Z,94.00
2022-11-05T22:22:25.802Z,95.90
2022-11-05T22:24:55.294Z,96.20
2022-11-05T22:27:23.336Z,95.90
2022-11-05T22:29:53.505Z,96.80
2022-11-05T22:32:21.558Z,98.50
2022-11-05T22:34:49.781Z,99.90
2022-11-05T22:37:17.778Z,99.90
2022-11-05T22:39:45.805Z,99.90
2022-11-05T22:42:15.689Z,99.90
2022-11-05T22:44:45.974Z,99.90
2022-11-05T22:47:14.262Z,99.90
2022-11-05T22:49:42.419Z,99.90
2022-11-05T22:52:10.460Z,99.90
2022-11-05T22:54:39.588Z,99.90
2022-11-05T22:57:08.586Z,99.90
2022-11-05T22:59:40.765Z,99.90
2022-11-05T23:02:10.129Z,99.90
2022-11-05T23:04:39.468Z,99.90
2022-11-05T23:07:27.882Z,99.90
2022-11-05T23:10:14.419Z,99.90
2022-11-05T23:12:44.412Z,99.90
2022-11-05T23:15:34.351Z,99.90
2022-11-05T23:18:20.211Z,99.90
2022-11-05T23:21:05.694Z,99.90
2022-11-05T23:23:50.980Z,99.90
2022-11-05T23:26:36.669Z,99.90
2022-11-05T23:29:05.030Z,99.90
2022-11-05T23:31:54.373Z,99.90
2022-11-05T23:34:22.380Z,99.90
2022-11-05T23:37:19.364Z,99.90
2022-11-05T23:39:47.620Z,99.90
2022-11-05T23:42:33.392Z,99.90
2022-11-05T23:45:21.869Z,99.90
2022-11-05T23:48:08.883Z,99.90
2022-11-05T23:50:40.058Z,99.90
2022-11-05T23:53:08.905Z,99.90
2022-11-05T23:55:37.391Z,99.90
2022-11-05T23:58:05.574Z,99.90
